Time;durP1;ratioP1;P1;durP2;ratioP2;P2;SDS_P1;SDS_P2;PMS_P1;PMS_P2;Temp;Humidity;BMP_temperature;BMP_pressure;BME280_temperature;BME280_humidity;BME280_pressure;Samples;Min_cycle;Max_cycle;Signal;HPM_P1;HPM_P2
2022/10/07 00:00:45;;;;;;;9.02;1.48;;;13.30;99.90;;;;;;5008261;28;20026;-93
2022/10/07 00:03:11;;;;;;;7.03;1.63;;;13.30;99.90;;;;;;5025228;28;20038;-93
2022/10/07 00:05:36;;;;;;;8.68;1.33;;;13.30;99.90;;;;;;5005775;28;20150;-94
2022/10/07 00:08:02;;;;;;;8.80;1.50;;;13.30;99.90;;;;;;5006672;28;20034;-95
2022/10/07 00:10:28;;;;;;;11.02;1.50;;;13.20;99.90;;;;;;4999568;28;20515;-94
2022/10/07 00:12:54;;;;;;;8.40;1.40;;;13.20;99.90;;;;;;5002644;28;20026;-95
2022/10/07 00:15:22;;;;;;;14.30;2.17;;;13.20;99.90;;;;;;5006998;28;20034;-94
2022/10/07 00:17:48;;;;;;;30.50;3.83;;;13.20;99.90;;;;;;5010326;28;20011;-95
2022/10/07 00:20:13;;;;;;;8.50;1.38;;;13.30;99.90;;;;;;4999533;28;20034;-95
2022/10/07 00:22:39;;;;;;;7.40;1.52;;;13.20;99.90;;;;;;4997344;28;20035;-93
2022/10/07 00:25:05;;;;;;;8.10;1.38;;;13.20;99.90;;;;;;5003958;28;20034;-93
2022/10/07 00:27:31;;;;;;;9.45;0.95;;;13.20;99.90;;;;;;5000393;28;20030;-93
2022/10/07 00:29:56;;;;;;;7.93;1.30;;;13.20;99.90;;;;;;4995495;28;20042;-92
2022/10/07 00:32:22;;;;;;;9.02;1.90;;;13.10;99.90;;;;;;4994841;28;20023;-94
2022/10/07 00:34:47;;;;;;;7.00;1.33;;;13.10;99.90;;;;;;4998298;28;20026;-94
2022/10/07 00:37:13;;;;;;;11.52;1.83;;;13.10;99.90;;;;;;5002317;28;20030;-93
2022/10/07 00:39:40;;;;;;;9.60;2.03;;;13.10;99.90;;;;;;4998440;28;20034;-93
2022/10/07 00:42:07;;;;;;;9.35;1.60;;;13.10;99.90;;;;;;4985858;28;20136;-94
2022/10/07 00:44:41;;;;;;;17.92;2.05;;;13.10;99.90;;;;;;4999589;28;20045;-93
2022/10/07 00:47:25;;;;;;;9.35;2.33;;;13.00;99.90;;;;;;5003094;28;20061;-94
2022/10/07 00:50:24;;;;;;;13.90;1.92;;;13.10;99.90;;;;;;5003910;28;20023;-95
2022/10/07 00:52:59;;;;;;;13.23;2.42;;;13.00;99.90;;;;;;5011658;28;20042;-94
2022/10/07 00:55:28;;;;;;;11.23;1.35;;;13.00;99.90;;;;;;5007579;28;20058;-94
2022/10/07 00:57:58;;;;;;;12.30;2.65;;;12.90;99.90;;;;;;5001201;28;20046;-96
2022/10/07 01:00:23;;;;;;;13.30;1.30;;;12.90;99.90;;;;;;5004463;28;20114;-93
2022/10/07 01:02:50;;;;;;;5.78;1.55;;;12.90;99.90;;;;;;5005030;28;20073;-93
2022/10/07 01:05:16;;;;;;;13.13;1.30;;;12.90;99.90;;;;;;5003401;28;20022;-94
2022/10/07 01:07:44;;;;;;;10.80;1.77;;;12.90;99.90;;;;;;5022392;28;20054;-95
2022/10/07 01:10:11;;;;;;;7.43;1.20;;;12.90;99.90;;;;;;5010055;28;20026;-95
2022/10/07 01:12:55;;;;;;;12.55;1.30;;;12.90;99.90;;;;;;5030071;28;20274;-94
2022/10/07 01:15:42;;;;;;;12.50;1.88;;;12.90;99.90;;;;;;5014123;28;20049;-93
2022/10/07 01:18:17;;;;;;;11.07;1.70;;;12.90;99.90;;;;;;5009814;28;20022;-95
2022/10/07 01:20:56;;;;;;;14.82;1.85;;;12.90;99.90;;;;;;5008496;28;20068;-95
2022/10/07 01:23:40;;;;;;;16.65;1.40;;;12.90;99.90;;;;;;5006233;28;20037;-94
2022/10/07 01:26:23;;;;;;;17.15;2.28;;;12.90;99.90;;;;;;5003593;28;20026;-95
2022/10/07 01:28:55;;;;;;;10.82;1.67;;;12.80;99.90;;;;;;5003931;28;20061;-95
2022/10/07 01:31:26;;;;;;;7.80;1.17;;;12.80;99.90;;;;;;5005938;28;20132;-96
2022/10/07 01:33:53;;;;;;;12.13;1.63;;;12.90;99.90;;;;;;5007440;28;20030;-94
2022/10/07 01:36:22;;;;;;;14.07;2.50;;;12.90;99.90;;;;;;4998980;28;20105;-94
2022/10/07 01:38:52;;;;;;;14.05;1.63;;;12.80;99.90;;;;;;5001002;28;20026;-94
2022/10/07 01:41:20;;;;;;;7.78;1.45;;;12.90;99.90;;;;;;5005880;28;20065;-94
2022/10/07 01:43:47;;;;;;;7.78;1.02;;;12.80;99.90;;;;;;5001400;28;20019;-94
2022/10/07 01:46:17;;;;;;;14.27;2.22;;;12.80;99.90;;;;;;4990071;28;20089;-95
2022/10/07 01:48:45;;;;;;;5.95;0.90;;;12.80;99.90;;;;;;4985843;28;20019;-95
2022/10/07 01:51:12;;;;;;;6.68;1.20;;;12.80;99.90;;;;;;4987247;28;20039;-96
2022/10/07 01:54:01;;;;;;;12.18;1.52;;;12.80;99.90;;;;;;4994701;28;20054;-94
2022/10/07 01:56:56;;;;;;;11.45;1.77;;;12.80;99.90;;;;;;4985693;28;20023;-95
2022/10/07 02:00:19;;;;;;;8.23;1.30;;;12.80;99.90;;;;;;4981779;28;20370;-95
2022/10/07 02:02:50;;;;;;;9.57;1.17;;;12.80;99.90;;;;;;4923397;29;20067;-91
2022/10/07 02:05:28;;;;;;;13.57;1.42;;;12.80;99.90;;;;;;4908720;29;20044;-95
2022/10/07 02:08:32;;;;;;;13.13;1.70;;;12.70;99.90;;;;;;4905649;29;20498;-94
2022/10/07 02:11:19;;;;;;;7.38;1.20;;;12.70;99.90;;;;;;4904119;29;20047;-94
2022/10/07 02:13:57;;;;;;;11.75;1.25;;;12.70;99.90;;;;;;4910120;29;20095;-94
2022/10/07 02:16:32;;;;;;;6.43;1.13;;;12.70;99.90;;;;;;4907612;29;20028;-94
2022/10/07 02:19:03;;;;;;;8.65;1.95;;;12.70;99.90;;;;;;4911950;29;20056;-93
2022/10/07 02:21:32;;;;;;;11.35;1.08;;;12.70;99.90;;;;;;4910202;29;20056;-94
2022/10/07 02:23:59;;;;;;;9.18;1.20;;;12.70;99.90;;;;;;4905504;29;20185;-94
2022/10/07 02:26:29;;;;;;;8.35;1.80;;;12.70;99.90;;;;;;4908314;29;20128;-95
2022/10/07 02:28:57;;;;;;;5.17;0.77;;;12.60;99.90;;;;;;4926073;29;20028;-95
2022/10/07 02:31:29;;;;;;;6.38;1.30;;;12.70;99.90;;;;;;4908494;29;20036;-91
2022/10/07 02:33:57;;;;;;;8.05;0.90;;;12.60;99.90;;;;;;4959842;28;20038;-95
2022/10/07 02:36:40;;;;;;;7.90;1.38;;;12.60;99.90;;;;;;4984450;28;20037;-94
2022/10/07 02:39:06;;;;;;;9.10;1.30;;;12.60;99.90;;;;;;4988798;28;20061;-94
2022/10/07 02:41:50;;;;;;;11.82;1.20;;;12.60;99.90;;;;;;4986491;28;20102;-91
2022/10/07 02:44:45;;;;;;;9.63;1.35;;;12.60;99.90;;;;;;4990088;28;20014;-90
2022/10/07 02:47:32;;;;;;;13.70;1.60;;;12.60;99.90;;;;;;4985649;28;20065;-93
2022/10/07 02:50:02;;;;;;;13.48;2.20;;;12.60;99.90;;;;;;4986318;28;20015;-91
2022/10/07 02:52:30;;;;;;;10.63;1.43;;;12.60;99.90;;;;;;4988371;28;20043;-91
2022/10/07 02:55:05;;;;;;;13.85;1.40;;;12.60;99.90;;;;;;4988906;28;20034;-91
2022/10/07 02:57:36;;;;;;;9.63;1.45;;;12.60;99.90;;;;;;4987392;28;20042;-93
2022/10/07 03:00:05;;;;;;;15.07;1.67;;;12.60;99.90;;;;;;4987689;28;20031;-93
2022/10/07 03:02:43;;;;;;;8.50;2.95;;;12.60;99.90;;;;;;4984425;28;20078;-93
2022/10/07 03:05:11;;;;;;;10.57;1.58;;;12.60;99.90;;;;;;4988351;28;20023;-91
2022/10/07 03:07:37;;;;;;;7.55;1.95;;;12.60;99.90;;;;;;4988465;28;20081;-93
2022/10/07 03:10:05;;;;;;;5.97;0.75;;;12.60;99.90;;;;;;4981545;28;20031;-93
2022/10/07 03:12:30;;;;;;;9.45;1.27;;;12.60;99.90;;;;;;4985266;28;20027;-88
2022/10/07 03:14:57;;;;;;;6.88;1.58;;;12.60;99.90;;;;;;4965414;28;20037;-93
2022/10/07 03:17:22;;;;;;;7.25;1.05;;;12.60;99.90;;;;;;4979407;28;20078;-93
2022/10/07 03:19:48;;;;;;;5.57;0.77;;;12.60;99.90;;;;;;4983269;28;20026;-94
2022/10/07 03:22:14;;;;;;;13.50;1.90;;;12.70;99.90;;;;;;4987692;28;20050;-94
2022/10/07 03:24:40;;;;;;;6.53;0.95;;;12.70;99.90;;;;;;4983489;28;20030;-95
2022/10/07 03:27:06;;;;;;;10.27;1.45;;;12.70;99.90;;;;;;4987169;28;20584;-92
2022/10/07 03:29:35;;;;;;;6.47;1.10;;;12.70;99.90;;;;;;4988033;28;20074;-88
2022/10/07 03:32:01;;;;;;;6.05;0.85;;;12.60;99.90;;;;;;4987593;28;20083;-93
2022/10/07 03:34:27;;;;;;;17.00;2.28;;;12.70;99.90;;;;;;4988083;28;20034;-93
2022/10/07 03:36:54;;;;;;;1.38;0.60;;;12.70;99.90;;;;;;4983788;28;20043;-95
2022/10/07 03:39:19;;;;;;;7.22;1.30;;;12.70;99.90;;;;;;4986739;28;20066;-93
2022/10/07 03:41:47;;;;;;;10.93;1.20;;;12.70;99.90;;;;;;4982542;28;20054;-93
2022/10/07 03:44:13;;;;;;;13.10;1.30;;;12.70;99.90;;;;;;4984054;28;20022;-94
2022/10/07 03:46:39;;;;;;;11.02;1.35;;;12.70;99.90;;;;;;4982193;28;20031;-94
2022/10/07 03:49:05;;;;;;;14.20;1.63;;;12.60;99.90;;;;;;4979657;28;20038;-93
2022/10/07 03:51:31;;;;;;;16.70;2.38;;;12.60;99.90;;;;;;4978636;28;20050;-93
2022/10/07 03:53:58;;;;;;;7.88;1.20;;;12.60;99.90;;;;;;4964999;28;20047;-94
2022/10/07 03:56:24;;;;;;;11.20;1.73;;;12.60;99.90;;;;;;4978478;28;20054;-91
2022/10/07 03:58:49;;;;;;;12.80;1.52;;;12.60;99.90;;;;;;4979873;28;20046;-91
2022/10/07 04:01:16;;;;;;;6.82;1.23;;;12.60;99.90;;;;;;4983777;28;20023;-93
2022/10/07 04:03:42;;;;;;;7.05;1.30;;;12.60;99.90;;;;;;4990800;28;20145;-92
2022/10/07 04:06:09;;;;;;;11.52;1.27;;;12.60;99.90;;;;;;4991886;28;20078;-91
2022/10/07 04:08:35;;;;;;;10.88;1.48;;;12.60;99.90;;;;;;4982019;28;20393;-94
2022/10/07 04:11:02;;;;;;;11.43;1.60;;;12.60;99.90;;;;;;4982217;28;20050;-95
2022/10/07 04:13:28;;;;;;;7.40;1.15;;;12.50;99.90;;;;;;4981815;28;20030;-94
2022/10/07 04:15:54;;;;;;;3.58;1.08;;;12.50;99.90;;;;;;4978722;28;20041;-92
2022/10/07 04:18:21;;;;;;;7.65;2.08;;;12.50;99.90;;;;;;4981896;28;20030;-93
2022/10/07 04:20:47;;;;;;;4.38;1.20;;;12.50;99.90;;;;;;4984464;28;20054;-95
2022/10/07 04:23:12;;;;;;;14.00;1.70;;;12.50;99.90;;;;;;4975171;28;20541;-94
2022/10/07 04:25:45;;;;;;;13.27;1.88;;;12.50;99.90;;;;;;4990206;28;20034;-91
2022/10/07 04:28:15;;;;;;;10.18;1.55;;;12.50;99.90;;;;;;4989482;28;20035;-94
2022/10/07 04:30:42;;;;;;;6.88;0.93;;;12.50;99.90;;;;;;4993588;28;20039;-92
2022/10/07 04:33:08;;;;;;;11.00;2.20;;;12.40;99.90;;;;;;4992457;28;20029;-93
2022/10/07 04:35:39;;;;;;;8.27;1.75;;;12.40;99.90;;;;;;4985947;28;20065;-94
2022/10/07 04:38:10;;;;;;;9.00;1.58;;;12.40;99.90;;;;;;4983759;28;20031;-93
2022/10/07 04:40:41;;;;;;;8.07;1.40;;;12.40;99.90;;;;;;4982293;28;20114;-93
2022/10/07 04:43:18;;;;;;;8.45;1.17;;;12.40;99.90;;;;;;4980768;28;20085;-94
2022/10/07 04:45:52;;;;;;;12.73;1.95;;;12.40;99.90;;;;;;4979664;28;20018;-94
2022/10/07 04:48:25;;;;;;;13.50;1.70;;;12.40;99.90;;;;;;4978343;28;20022;-94
2022/10/07 04:50:51;;;;;;;11.93;1.98;;;12.40;99.90;;;;;;4986344;28;20042;-94
2022/10/07 04:53:19;;;;;;;11.98;2.00;;;12.30;99.90;;;;;;4982777;28;20023;-92
2022/10/07 04:55:47;;;;;;;6.93;1.13;;;12.30;99.90;;;;;;4981831;28;20038;-93
2022/10/07 04:58:14;;;;;;;6.38;0.85;;;12.30;99.90;;;;;;4977625;28;20034;-94
2022/10/07 05:00:50;;;;;;;10.52;1.15;;;12.30;99.90;;;;;;4978281;28;20026;-93
2022/10/07 05:03:18;;;;;;;6.93;1.40;;;12.30;99.90;;;;;;4976516;28;20054;-95
2022/10/07 05:05:46;;;;;;;3.50;0.80;;;12.30;99.90;;;;;;4978643;28;20031;-93
2022/10/07 05:08:14;;;;;;;11.18;1.50;;;12.30;99.90;;;;;;4976463;28;20058;-93
2022/10/07 05:10:41;;;;;;;12.13;1.38;;;12.30;99.90;;;;;;4975781;28;20023;-93
2022/10/07 05:13:12;;;;;;;8.45;2.35;;;12.30;99.90;;;;;;4980185;28;20019;-93
2022/10/07 05:15:53;;;;;;;8.38;1.48;;;12.30;99.90;;;;;;4984290;28;20047;-94
2022/10/07 05:18:20;;;;;;;9.65;1.45;;;12.30;99.90;;;;;;4989474;28;20070;-92
2022/10/07 05:20:47;;;;;;;10.00;1.40;;;12.30;99.90;;;;;;4987958;28;20035;-94
2022/10/07 05:23:18;;;;;;;6.78;2.13;;;12.30;99.90;;;;;;4978096;28;20031;-93
2022/10/07 05:25:45;;;;;;;8.40;1.48;;;12.30;99.90;;;;;;4974948;28;20019;-93
2022/10/07 05:28:11;;;;;;;8.40;1.20;;;12.30;99.90;;;;;;4988683;28;20124;-94
2022/10/07 05:30:37;;;;;;;8.68;0.82;;;12.30;99.90;;;;;;4996795;28;20547;-93
2022/10/07 05:33:03;;;;;;;10.23;1.33;;;12.20;99.90;;;;;;4997189;28;20034;-94
2022/10/07 05:35:30;;;;;;;16.73;1.35;;;12.20;99.90;;;;;;4995211;28;20213;-96
2022/10/07 05:37:56;;;;;;;7.53;1.20;;;12.20;99.90;;;;;;4998099;28;20038;-90
2022/10/07 05:40:21;;;;;;;9.38;1.33;;;12.20;99.90;;;;;;4993543;28;20036;-93
2022/10/07 05:42:47;;;;;;;11.25;1.65;;;12.20;99.90;;;;;;4997046;28;20402;-95
2022/10/07 05:45:13;;;;;;;8.60;1.10;;;12.20;99.90;;;;;;4997685;28;20018;-93
2022/10/07 05:47:40;;;;;;;13.43;1.80;;;12.20;99.90;;;;;;5003627;28;20427;-95
2022/10/07 05:50:06;;;;;;;10.48;1.00;;;12.20;99.90;;;;;;5004085;28;20038;-93
2022/10/07 05:52:32;;;;;;;5.80;1.73;;;12.20;99.90;;;;;;5004149;28;20046;-94
2022/10/07 05:54:58;;;;;;;5.55;1.38;;;12.20;99.90;;;;;;4992629;28;20031;-94
2022/10/07 05:57:24;;;;;;;11.25;1.10;;;12.20;99.90;;;;;;4998226;28;20074;-93
2022/10/07 05:59:51;;;;;;;9.63;1.30;;;12.20;99.90;;;;;;5007172;28;20023;-92
2022/10/07 06:02:17;;;;;;;9.30;1.58;;;12.20;99.90;;;;;;5005856;28;20089;-89
2022/10/07 06:04:46;;;;;;;9.38;1.05;;;12.20;99.90;;;;;;5013174;28;20078;-94
2022/10/07 06:07:15;;;;;;;7.47;1.48;;;12.10;99.90;;;;;;5005718;28;20023;-93
2022/10/07 06:15:12;;;;;;;11.38;1.25;;;12.10;99.90;;;;;;5007887;28;20054;-95
2022/10/07 06:17:42;;;;;;;11.52;1.40;;;12.10;99.90;;;;;;5007039;28;20034;-93
2022/10/07 06:20:13;;;;;;;;;;;12.10;99.90;;;;;;5003922;28;20115;-93
2022/10/07 06:22:38;;;;;;;17.33;1.50;;;12.10;99.90;;;;;;5003158;28;19917;-92
2022/10/07 06:25:05;;;;;;;9.10;1.20;;;12.10;99.90;;;;;;5001101;28;20034;-94
2022/10/07 06:27:31;;;;;;;11.15;1.27;;;12.10;99.90;;;;;;5013830;28;20035;-93
2022/10/07 06:29:57;;;;;;;7.53;1.20;;;12.10;99.90;;;;;;5005937;28;20084;-94
2022/10/07 06:32:23;;;;;;;7.60;0.88;;;12.10;99.90;;;;;;5006916;28;20031;-95
2022/10/07 06:34:48;;;;;;;8.10;1.00;;;12.10;99.90;;;;;;4975370;28;20031;-95
2022/10/07 06:37:14;;;;;;;8.15;0.80;;;12.10;99.90;;;;;;4975180;28;20037;-95
2022/10/07 06:39:40;;;;;;;7.78;1.10;;;12.10;99.90;;;;;;4999969;28;20026;-95
2022/10/07 06:42:06;;;;;;;6.93;1.30;;;12.10;99.90;;;;;;5013522;28;20038;-93
2022/10/07 06:44:35;;;;;;;12.57;2.33;;;12.10;99.90;;;;;;5014091;28;20050;-95
2022/10/07 06:47:01;;;;;;;8.10;1.88;;;12.10;99.90;;;;;;5006748;28;20022;-95
2022/10/07 06:49:30;;;;;;;6.28;1.30;;;12.10;99.90;;;;;;5022350;28;20038;-95
2022/10/07 06:51:55;;;;;;;2.92;0.73;;;12.20;99.90;;;;;;4999737;28;20407;-93
2022/10/07 06:54:21;;;;;;;11.52;1.73;;;12.20;99.90;;;;;;4980306;28;20121;-93
2022/10/07 06:56:47;;;;;;;7.32;1.33;;;12.20;99.90;;;;;;4988061;28;20135;-95
2022/10/07 06:59:12;;;;;;;7.13;1.33;;;12.20;99.90;;;;;;4994852;28;20034;-91
2022/10/07 07:01:38;;;;;;;9.40;1.88;;;12.20;99.90;;;;;;4995533;28;20023;-93
2022/10/07 07:04:04;;;;;;;10.77;1.75;;;12.20;99.90;;;;;;4999662;28;20061;-94
2022/10/07 07:06:29;;;;;;;7.80;1.33;;;12.20;99.90;;;;;;4993005;28;20120;-94
2022/10/07 07:08:59;;;;;;;11.63;1.70;;;12.20;99.90;;;;;;4999656;28;20042;-93
2022/10/07 07:11:36;;;;;;;7.88;1.20;;;12.20;99.90;;;;;;4992439;28;20023;-93
2022/10/07 07:14:10;;;;;;;10.40;2.25;;;12.30;99.90;;;;;;5001356;28;20098;-93
2022/10/07 07:16:36;;;;;;;8.68;2.13;;;12.30;99.90;;;;;;5004491;28;20027;-90
2022/10/07 07:19:07;;;;;;;7.05;1.13;;;12.40;99.90;;;;;;4997019;28;20026;-92
2022/10/07 07:21:34;;;;;;;5.38;1.98;;;12.40;99.90;;;;;;4995707;28;20381;-92
2022/10/07 07:24:01;;;;;;;9.90;1.60;;;12.40;99.90;;;;;;4995288;28;20037;-92
2022/10/07 07:26:28;;;;;;;14.55;1.40;;;12.50;99.90;;;;;;4995545;28;20034;-92
2022/10/07 07:28:59;;;;;;;9.77;1.83;;;12.50;99.90;;;;;;4995206;28;20033;-93
2022/10/07 07:31:27;;;;;;;9.60;1.70;;;12.50;99.90;;;;;;4995213;28;20510;-93
2022/10/07 07:33:58;;;;;;;9.45;1.73;;;12.60;99.90;;;;;;4994922;28;20103;-93
2022/10/07 07:36:24;;;;;;;7.95;1.38;;;12.50;99.90;;;;;;4994775;28;20121;-94
2022/10/07 07:38:58;;;;;;;6.72;1.60;;;12.60;99.90;;;;;;4993522;28;20412;-93
2022/10/07 07:41:29;;;;;;;6.47;1.42;;;12.60;99.90;;;;;;4994902;28;20065;-92
2022/10/07 07:43:58;;;;;;;8.73;1.88;;;12.70;99.90;;;;;;4994800;28;20022;-92
2022/10/07 07:46:28;;;;;;;9.75;1.25;;;12.70;99.90;;;;;;4994267;28;20230;-94
2022/10/07 07:48:54;;;;;;;14.18;1.42;;;12.80;99.90;;;;;;4995081;28;20033;-91
2022/10/07 07:51:21;;;;;;;8.90;1.25;;;12.80;99.90;;;;;;4997014;28;20527;-95
2022/10/07 07:53:51;;;;;;;8.27;1.20;;;12.90;99.90;;;;;;4998278;28;20065;-92
2022/10/07 07:56:17;;;;;;;10.57;1.48;;;12.90;99.90;;;;;;4996145;28;20507;-94
2022/10/07 07:58:43;;;;;;;9.15;1.85;;;12.90;99.90;;;;;;4995328;28;20029;-92
2022/10/07 08:01:12;;;;;;;4.60;1.08;;;13.00;99.90;;;;;;4995214;28;20133;-93
2022/10/07 08:03:42;;;;;;;10.43;1.38;;;13.00;99.90;;;;;;4995027;28;20037;-93
2022/10/07 08:06:12;;;;;;;9.80;1.20;;;13.00;99.90;;;;;;4995303;28;20053;-91
2022/10/07 08:08:38;;;;;;;8.55;1.67;;;13.00;99.90;;;;;;4978073;28;20098;-92
2022/10/07 08:11:09;;;;;;;5.15;1.13;;;13.10;99.90;;;;;;4993251;28;20069;-94
2022/10/07 08:13:38;;;;;;;8.35;1.80;;;13.10;99.90;;;;;;4993377;28;20473;-92
2022/10/07 08:16:04;;;;;;;10.48;1.20;;;13.20;99.90;;;;;;4993048;28;20041;-92
2022/10/07 08:18:30;;;;;;;9.98;1.67;;;13.20;99.90;;;;;;4993053;28;20034;-91
2022/10/07 08:21:00;;;;;;;10.80;1.70;;;13.30;99.90;;;;;;4993162;28;20265;-91
2022/10/07 08:23:28;;;;;;;7.88;1.30;;;13.30;99.90;;;;;;4993327;28;20023;-94
2022/10/07 08:25:57;;;;;;;5.68;1.77;;;13.30;99.90;;;;;;4993463;28;20050;-93
2022/10/07 08:28:26;;;;;;;9.65;1.58;;;13.40;99.90;;;;;;4994198;28;20030;-93
2022/10/07 08:30:52;;;;;;;8.57;1.20;;;13.40;99.90;;;;;;4994359;28;20110;-91
2022/10/07 08:33:19;;;;;;;6.78;1.02;;;13.50;99.90;;;;;;5003183;28;20491;-92
2022/10/07 08:35:57;;;;;;;8.82;1.48;;;13.60;99.90;;;;;;4996629;28;20031;-91
2022/10/07 08:38:24;;;;;;;9.32;1.80;;;13.60;99.90;;;;;;4994125;28;20031;-93
2022/10/07 08:40:52;;;;;;;5.90;1.30;;;13.60;99.90;;;;;;4993833;28;20061;-91
2022/10/07 08:43:22;;;;;;;7.93;1.00;;;13.70;99.90;;;;;;4993627;28;20112;-91
2022/10/07 08:45:54;;;;;;;8.68;1.00;;;13.80;99.90;;;;;;4993969;28;20158;-92
2022/10/07 08:48:29;;;;;;;5.47;1.50;;;13.80;99.90;;;;;;4993390;28;20117;-89
2022/10/07 08:51:24;;;;;;;10.57;1.60;;;13.90;99.90;;;;;;5003948;28;20034;-91
2022/10/07 08:53:54;;;;;;;8.98;1.50;;;13.90;99.90;;;;;;5002128;28;20035;-90
2022/10/07 08:56:22;;;;;;;12.07;1.63;;;13.90;99.90;;;;;;5003296;28;20030;-93
2022/10/07 08:59:01;;;;;;;9.40;1.52;;;13.90;99.90;;;;;;4987664;28;20046;-92
2022/10/07 09:01:30;;;;;;;6.68;1.05;;;14.00;99.90;;;;;;4998340;28;20488;-93
2022/10/07 09:04:24;;;;;;;8.03;1.53;;;14.10;99.90;;;;;;4997650;28;20542;-94
2022/10/07 09:07:21;;;;;;;3.90;1.00;;;14.10;99.90;;;;;;5000008;28;20065;-94
2022/10/07 09:10:12;;;;;;;7.80;1.52;;;14.20;99.90;;;;;;4973741;28;20029;-95
2022/10/07 09:12:44;;;;;;;6.90;1.10;;;14.20;99.90;;;;;;5006000;28;20030;-96
2022/10/07 09:15:48;;;;;;;8.05;1.10;;;14.30;99.90;;;;;;5007553;28;20035;-94
2022/10/07 09:18:38;;;;;;;6.32;0.73;;;14.30;99.90;;;;;;5001998;28;20034;-95
2022/10/07 09:21:18;;;;;;;4.22;0.73;;;14.30;99.90;;;;;;5013258;28;20040;-95
2022/10/07 09:23:45;;;;;;;;;;;14.30;99.90;;;;;;4997633;28;20035;-96
2022/10/07 09:26:21;;;;;;;4.75;1.13;;;14.40;99.90;;;;;;4994947;28;19917;-96
2022/10/07 09:28:48;;;;;;;3.25;0.68;;;14.50;99.90;;;;;;4998356;28;20018;-95
2022/10/07 09:31:15;;;;;;;10.18;1.20;;;14.60;99.90;;;;;;4997514;28;20050;-95
2022/10/07 09:33:44;;;;;;;6.05;1.35;;;14.80;99.90;;;;;;5009538;28;20027;-96
2022/10/07 09:36:17;;;;;;;7.72;1.45;;;14.80;99.90;;;;;;5005559;28;20033;-95
2022/10/07 09:38:54;;;;;;;7.78;1.23;;;14.90;99.90;;;;;;5003708;28;20085;-95
2022/10/07 09:41:34;;;;;;;6.50;1.20;;;15.00;99.90;;;;;;5008522;28;20031;-96
2022/10/07 09:44:19;;;;;;;8.43;1.13;;;15.10;99.90;;;;;;5002087;28;20087;-95
2022/10/07 09:46:55;;;;;;;8.20;1.25;;;15.00;99.90;;;;;;5004661;28;20074;-95
2022/10/07 09:49:30;;;;;;;9.05;1.20;;;14.90;99.90;;;;;;5006087;28;20031;-95
2022/10/07 09:52:03;;;;;;;4.85;1.00;;;14.90;99.90;;;;;;5008553;28;20042;-95
2022/10/07 09:54:31;;;;;;;9.85;1.02;;;14.80;99.90;;;;;;5011859;28;20042;-96
2022/10/07 09:56:59;;;;;;;6.60;1.40;;;14.80;99.90;;;;;;5003028;28;20056;-94
2022/10/07 09:59:36;;;;;;;7.10;1.15;;;14.80;99.90;;;;;;5014673;28;20403;-96
2022/10/07 10:02:14;;;;;;;8.90;0.80;;;14.70;99.90;;;;;;5012235;28;20030;-96
2022/10/07 10:04:52;;;;;;;7.05;0.82;;;14.70;99.90;;;;;;5008729;28;20031;-95
2022/10/07 10:07:29;;;;;;;6.60;0.90;;;14.70;99.90;;;;;;5006078;28;20018;-96
2022/10/07 10:09:59;;;;;;;9.30;1.50;;;14.70;99.90;;;;;;5006468;28;20034;-93
2022/10/07 10:12:25;;;;;;;9.98;1.52;;;14.70;99.90;;;;;;5007468;28;20037;-95
2022/10/07 10:15:15;;;;;;;4.78;1.08;;;14.80;99.90;;;;;;5015903;28;20027;-94
2022/10/07 10:17:44;;;;;;;13.93;1.43;;;15.00;99.90;;;;;;5006346;28;20094;-95
2022/10/07 10:20:24;;;;;;;9.48;1.23;;;15.20;99.90;;;;;;5004152;28;20082;-95
2022/10/07 10:22:50;;;;;;;10.77;1.52;;;15.20;99.90;;;;;;4999973;28;20042;-94
2022/10/07 10:28:38;;;;;;;4.95;0.90;;;15.50;99.90;;;;;;5001177;28;20046;-95
2022/10/07 10:31:17;;;;;;;6.88;0.93;;;15.60;99.90;;;;;;4998839;28;20035;-96
2022/10/07 10:34:17;;;;;;;7.30;1.27;;;15.60;99.90;;;;;;5008074;28;20019;-95
2022/10/07 10:40:34;;;;;;;9.55;1.17;;;15.80;99.90;;;;;;4954479;29;20073;-95
2022/10/07 10:43:26;;;;;;;5.03;1.15;;;16.10;99.90;;;;;;4958836;29;20039;-96
2022/10/07 10:46:14;;;;;;;7.30;1.20;;;16.30;99.90;;;;;;4936955;29;20166;-96
2022/10/07 10:49:05;;;;;;;7.97;1.15;;;16.40;99.90;;;;;;4936769;29;20035;-95
2022/10/07 10:51:45;;;;;;;7.60;0.93;;;16.30;99.90;;;;;;4950454;29;20600;-94
2022/10/07 10:54:21;;;;;;;6.47;1.33;;;16.10;99.90;;;;;;4953747;29;20039;-95
2022/10/07 10:57:00;;;;;;;8.05;1.02;;;15.90;99.90;;;;;;4956268;29;20027;-94
2022/10/07 10:59:56;;;;;;;5.15;0.90;;;15.80;99.90;;;;;;4951579;29;20024;-96
2022/10/07 11:02:40;;;;;;;5.70;1.20;;;15.60;99.90;;;;;;4931105;29;20111;-95
2022/10/07 11:05:20;;;;;;;5.43;0.90;;;15.50;99.90;;;;;;4935786;29;20091;-96
2022/10/07 11:08:16;;;;;;;4.07;0.70;;;15.40;99.90;;;;;;4935338;29;20020;-96
2022/10/07 11:11:11;;;;;;;2.47;0.95;;;15.20;99.90;;;;;;4941572;29;20052;-96
2022/10/07 11:13:55;;;;;;;3.15;0.80;;;15.00;99.90;;;;;;4954746;29;20018;-95
2022/10/07 11:16:35;;;;;;;7.72;1.58;;;14.80;99.90;;;;;;4962049;28;20019;-96
2022/10/07 11:19:16;;;;;;;10.88;1.50;;;14.70;99.90;;;;;;4999080;28;20070;-95
2022/10/07 11:21:55;;;;;;;10.77;0.90;;;14.60;99.90;;;;;;5004790;28;20075;-94
2022/10/07 11:24:38;;;;;;;11.60;1.20;;;14.50;99.90;;;;;;5008979;28;20038;-95
2022/10/07 11:27:36;;;;;;;6.50;0.90;;;14.30;99.90;;;;;;5004713;28;20041;-95
2022/10/07 11:30:16;;;;;;;6.78;1.23;;;14.20;99.90;;;;;;4975153;28;20027;-93
2022/10/07 11:33:04;;;;;;;4.45;1.40;;;14.10;99.90;;;;;;4986306;28;20046;-96
2022/10/07 11:35:42;;;;;;;4.10;0.73;;;14.10;99.90;;;;;;4993156;28;20033;-93
2022/10/07 11:38:14;;;;;;;6.40;1.70;;;14.00;99.90;;;;;;5007467;28;20492;-95
2022/10/07 11:40:50;;;;;;;5.05;1.10;;;13.90;99.90;;;;;;5007215;28;20034;-96
2022/10/07 11:43:28;;;;;;;8.98;1.83;;;13.90;99.90;;;;;;5000850;28;20089;-95
2022/10/07 11:46:17;;;;;;;5.68;1.27;;;13.80;99.90;;;;;;5000192;28;20014;-96
2022/10/07 11:48:49;;;;;;;7.70;2.10;;;13.80;99.90;;;;;;4997554;28;20078;-95
2022/10/07 11:51:43;;;;;;;7.43;2.30;;;13.80;99.90;;;;;;4999918;28;20058;-95
2022/10/07 11:54:14;;;;;;;4.97;1.23;;;13.80;99.90;;;;;;4995008;28;20081;-96
2022/10/07 11:56:49;;;;;;;5.25;1.38;;;13.70;99.90;;;;;;5008494;28;20019;-96
2022/10/07 11:59:43;;;;;;;5.88;1.00;;;13.70;99.90;;;;;;4989143;28;20014;-95
2022/10/07 12:02:28;;;;;;;6.70;1.50;;;13.70;99.90;;;;;;5007880;28;20030;-96
2022/10/07 12:04:56;;;;;;;6.90;0.95;;;13.60;99.90;;;;;;5007557;28;20030;-96
2022/10/07 12:07:34;;;;;;;6.07;1.90;;;13.60;99.90;;;;;;5009470;28;20077;-96
2022/10/07 12:10:02;;;;;;;5.82;1.20;;;13.60;99.90;;;;;;4997249;28;20106;-96
2022/10/07 12:12:43;;;;;;;4.45;0.60;;;13.50;99.90;;;;;;4996459;28;20026;-95
2022/10/07 12:15:34;;;;;;;2.50;0.63;;;13.30;99.90;;;;;;4992322;28;20026;-94
2022/10/07 12:18:03;;;;;;;0.93;0.35;;;13.20;99.90;;;;;;4993064;28;20033;-95
2022/10/07 12:20:51;;;;;;;3.22;0.60;;;13.00;99.90;;;;;;4997471;28;20046;-95
2022/10/07 12:23:24;;;;;;;1.98;0.30;;;12.80;99.90;;;;;;4996550;28;20034;-96
2022/10/07 12:25:58;;;;;;;5.00;1.02;;;12.60;99.90;;;;;;4995560;28;20054;-94
2022/10/07 12:28:47;;;;;;;3.22;1.30;;;12.50;99.90;;;;;;4994522;28;20019;-93
2022/10/07 12:31:21;;;;;;;8.18;1.33;;;12.40;99.90;;;;;;4995192;28;20034;-94
2022/10/07 12:34:08;;;;;;;4.57;0.88;;;12.30;99.90;;;;;;4996290;28;20018;-94
2022/10/07 12:36:34;;;;;;;5.65;1.05;;;12.30;99.90;;;;;;4997563;28;20061;-94
2022/10/07 12:39:00;;;;;;;6.13;1.33;;;12.20;99.90;;;;;;4995526;28;20093;-94
2022/10/07 12:41:32;;;;;;;4.82;1.00;;;12.10;99.90;;;;;;4994071;28;20097;-94
2022/10/07 12:44:09;;;;;;;4.30;0.80;;;12.10;99.90;;;;;;4984094;28;20173;-96
2022/10/07 12:46:53;;;;;;;5.40;1.10;;;12.00;99.90;;;;;;4978803;28;20030;-94
2022/10/07 12:49:28;;;;;;;5.75;1.42;;;12.00;99.90;;;;;;4979253;28;20019;-94
2022/10/07 12:51:57;;;;;;;9.10;1.20;;;11.90;99.90;;;;;;5002410;28;20046;-95
2022/10/07 12:54:31;;;;;;;9.43;1.17;;;11.90;99.90;;;;;;5001180;28;20029;-94
2022/10/07 12:56:57;;;;;;;7.50;1.27;;;11.90;99.90;;;;;;4999312;28;20030;-95
2022/10/07 13:02:27;;;;;;;10.07;1.85;;;11.80;99.90;;;;;;4998911;28;20085;-95
2022/10/07 13:05:14;;;;;;;6.75;1.40;;;11.80;99.90;;;;;;5014128;28;20010;-94
2022/10/07 13:07:57;;;;;;;4.75;1.23;;;11.70;99.90;;;;;;5015204;28;20062;-94
2022/10/07 13:10:55;;;;;;;7.32;1.50;;;11.80;99.90;;;;;;5016200;28;20018;-95
2022/10/07 13:13:33;;;;;;;4.18;0.95;;;11.70;99.90;;;;;;5015656;28;20023;-95
2022/10/07 13:16:12;;;;;;;7.57;1.20;;;11.60;99.90;;;;;;5017001;28;20042;-95
2022/10/07 13:19:05;;;;;;;4.15;1.13;;;11.70;99.90;;;;;;5008737;28;20046;-93
2022/10/07 13:21:52;;;;;;;7.30;1.10;;;11.70;99.90;;;;;;5006504;28;20042;-94
2022/10/07 13:24:28;;;;;;;4.70;1.23;;;11.80;99.90;;;;;;5016239;28;20014;-94
2022/10/07 13:27:06;;;;;;;5.05;0.98;;;11.90;99.90;;;;;;5013411;28;20014;-94
2022/10/07 13:29:37;;;;;;;4.65;0.88;;;12.00;99.90;;;;;;5013085;28;20089;-94